Home   Weather   Nagoya   Past weeks
Flag for Japan

Past Weather in Nagoya, Japan — Yesterday and Last 2 Weeks

Currently: 50 °F. Partly sunny. (Weather station: Nagoya Airport, Japan). See more current weather

Past Weather in Nagoya — Graph

°F

Nagoya Temperature Yesterday

Maximum temperature yesterday: 46 °F (at 3:00 pm)
Minimum temperature yesterday: 36 °F (at 6:00 am)
Average temperature yesterday: 43 °F

High & Low Weather Summary for the Past Weeks

 TemperatureHumidityPressure
High52 °F (Jan 20, 2:00 pm)100% (Jan 27, 12:30 pm)30.33 "Hg (Jan 27, 12:30 pm)
Low27 °F (Jan 25, 4:30 am)37% (Feb 2, 12:00 pm)29.50 "Hg (Jan 24, 2:00 pm)
Average40 °F65%30.03 "Hg
* Reported Jan 20 2:00 pm — Feb 4 2:30 pm, Nagoya. Weather by CustomWeather, © 2023

Note: Actual official high and low records may vary slightly from our data, if they occured in-between our weather recording intervals... More about our weather records

Nagoya Weather History for the Previous 24 Hours

Scroll right to see more
 ConditionsComfort  
Time TempWeatherWind HumidityBarometerVisibility
2:30 pm
Sat, Feb 4
50 °FScattered clouds.3 mph43%30.01 "HgN/A
2:00 pm50 °FScattered clouds.5 mph47%30.01 "HgN/A
1:30 pm52 °FPassing clouds.5 mph44%30.01 "HgN/A
1:00 pm50 °FPassing clouds.5 mph50%30.04 "HgN/A
12:30 pm50 °FPassing clouds.5 mph50%30.04 "HgN/A
12:00 pm48 °FPassing clouds.5 mph50%30.04 "HgN/A
11:30 am48 °FPassing clouds.5 mph58%30.07 "HgN/A
11:00 am45 °FPassing clouds.5 mph61%30.09 "HgN/A
10:30 am46 °FPassing clouds.2 mph57%30.09 "HgN/A
10:00 am45 °FPassing clouds.6 mph61%30.09 "HgN/A
8:30 am39 °FPassing clouds.6 mph75%30.09 "HgN/A
7:30 am36 °FPassing clouds.5 mph81%30.09 "HgN/A
7:00 am36 °FScattered clouds.5 mph81%30.09 "HgN/A
6:30 am37 °FPassing clouds.6 mph75%30.09 "HgN/A
6:00 am32 °FPassing clouds.8 mph75%30.07 "HgN/A
5:30 am41 °FQuite cool.6 mph66%30.07 "HgN/A
5:00 am39 °FChilly.3 mph75%30.07 "HgN/A
4:30 am36 °FChilly.6 mph81%30.04 "HgN/A
4:00 am37 °FChilly.7 mph75%30.04 "HgN/A
3:30 am36 °FChilly.3 mph75%30.04 "HgN/A
3:00 am37 °FChilly.3 mph70%30.07 "HgN/A
2:30 am41 °FQuite cool.7 mph66%30.07 "HgN/A
2:00 am37 °FChilly.3 mph70%30.07 "HgN/A
1:00 am43 °FQuite cool.8 mph66%30.07 "HgN/A
12:30 am37 °FChilly.3 mph65%30.07 "HgN/A
12:00 am41 °FQuite cool.3 mph66%30.07 "HgN/A
11:30 pm
Fri, Feb 3
43 °FQuite cool.10 mph61%30.07 "HgN/A
11:00 pm43 °FQuite cool.12 mph66%30.07 "HgN/A
10:30 pm43 °FPassing clouds.10 mph66%30.07 "HgN/A
10:00 pm43 °FPassing clouds.9 mph66%30.04 "HgN/A
9:30 pm43 °FPassing clouds.14 mph71%30.04 "HgN/A
9:00 pm43 °FPassing clouds.17 mph66%30.04 "HgN/A
8:30 pm43 °FPassing clouds.14 mph61%30.04 "HgN/A
8:00 pm45 °FPassing clouds.15 mph57%30.04 "HgN/A
7:30 pm45 °FPassing clouds.16 mph57%30.04 "HgN/A
7:00 pm45 °FPassing clouds.18 mph61%30.04 "HgN/A
6:30 pm45 °FPassing clouds.15 mph57%30.04 "HgN/A
6:00 pm45 °FPassing clouds.17 mph61%30.04 "HgN/A
5:30 pm45 °FPartly cloudy.15 mph57%30.04 "HgN/A
5:00 pm45 °FScattered clouds.14 mph57%30.04 "HgN/A
4:30 pm46 °FPassing clouds.9 mph53%30.04 "HgN/A
4:00 pm46 °FPartly sunny.3 mph50%30.04 "HgN/A
3:30 pm46 °FBroken clouds.5 mph50%30.04 "HgN/A
3:00 pm46 °FPartly sunny.2 mph53%30.04 "HgN/A
Weather by CustomWeather, © 2023

See weather overview